This is the latest recevied weather packets stored in our database for station/object FW0690. If no packets are shown the sender has not sent any weather packets the latest 1 day(s).
| Time | Temp. | Humidity | Pressure | Rain* | Wind** | Luminosity | Snow |
|---|---|---|---|---|---|---|---|
| 1778090202 | 21.67° C | 34% | 1012.1 hPa | - | - | 0 W/m² | - |
| 1778089842 | 21.67° C | 34% | 1012.1 hPa | - | - | 0 W/m² | - |
| 1778089482 | 21.67° C | 33% | 1012 hPa | - | - | 0 W/m² | - |
| 1778089122 | 22.22° C | 33% | 1011.9 hPa | - | - | 0 W/m² | - |
| 1778088762 | 22.22° C | 32% | 1011.9 hPa | - | - | 0 W/m² | - |
| 1778088402 | 22.22° C | 32% | 1011.8 hPa | - | - | 1 W/m² | - |
| 1778088042 | 22.78° C | 31% | 1011.9 hPa | - | - | 1 W/m² | - |
| 1778087682 | 22.78° C | 31% | 1011.9 hPa | - | - | 2 W/m² | - |
| 1778087322 | 22.78° C | 31% | 1011.9 hPa | - | - | 3 W/m² | - |
| 1778086962 | 23.33° C | 31% | 1011.9 hPa | - | - | 3 W/m² | - |
| 1778086602 | 23.33° C | 30% | 1011.8 hPa | - | - | 4 W/m² | - |
| 1778086242 | 23.33° C | 30% | 1011.8 hPa | - | - | 5 W/m² | - |
| 1778085882 | 23.33° C | 30% | 1011.8 hPa | - | - | 6 W/m² | - |
| 1778085522 | 23.89° C | 30% | 1011.7 hPa | - | - | 7 W/m² | - |
| 1778085162 | 23.89° C | 30% | 1011.7 hPa | - | - | 8 W/m² | - |
| 1778084442 | 23.89° C | 29% | 1011.7 hPa | - | - | 10 W/m² | - |
| 1778084082 | 24.44° C | 29% | 1011.6 hPa | - | - | 11 W/m² | - |
| 1778083002 | 24.44° C | 28% | 1011.6 hPa | - | - | 13 W/m² | - |
| 1778067522 | 30.56° C | 21% | 1012.8 hPa | - | - | 28 W/m² | - |
| 1778065001 | 29.44° C | 23% | 1013.1 hPa | - | - | 27 W/m² | - |
| 1778062482 | 28.89° C | 23% | 1013.2 hPa | - | - | 27 W/m² | - |
| 1778062481 | 28.89° C | 23% | 1013.2 hPa | - | - | 27 W/m² | - |
| 1778062122 | 29.44° C | 24% | 1013.2 hPa | - | - | 32 W/m² | - |
| 1778058881 | 25.56° C | 27% | 1013.5 hPa | - | - | 27 W/m² | - |
| 1778058521 | 25.56° C | 27% | 1013.5 hPa | - | - | 38 W/m² | - |
* Rain since midnight (hover to see other rain measurements)
** Current wind speed in m/s (hover to see current wind gust speed)